Pleasant Hill, Missouri
Current Conditions -  °F | °C
As of 11:53 PM on Friday 24 Oct 2014 (Local Time) from KLXT Reporting Station
Clear Clear  
Wind Chill: 64°   Ceiling: Unl
Heat Index: 64°   Visibility: 10mi
Dew Point: 60°   Wind: 7mph
Humidity: 87%   Direction: 220°SW
Pressure: 30"   Gusts: NA
Location:  38.79°N, 94.27°W
Report Text: KLXT 250453Z AUTO 22006KT 10SM CLR 18/16 A3000 RMK AO2 SLP155 T01780156
Loading
Personal Weather Stations






























Interactive Weather Map
Tropical Storm Tracking
New forecast layout! Learn more

10-Day Weather Forecast

Advertisements
Track Severe Weather on mobile